Terminal Aerodrome Forecast
Issued by NWS Portland, OR

Home | Current Version | Previous Version | Text Only | Print | Product List | Glossary On
Versions: 1 2 3 4 5 6 7 8 9 10 11 12 13 14 15 16
000
FTUS46 KPQR 161738
TAFEUG
TAF
KEUG 161738Z 1618/1718 19006KT P6SM SCT035 BKN070
     FM170800 21005KT P6SM -RA SCT025 OVC040
     FM171300 20006KT P6SM -RA BKN020 OVC035=

USA.gov is the U.S. government's official web portal to all federal, state and local government web resources and services.